Time;durP1;ratioP1;P1;durP2;ratioP2;P2;SDS_P1;SDS_P2;PMS_P1;PMS_P2;Temp;Humidity;BMP_temperature;BMP_pressure;BME280_temperature;BME280_humidity;BME280_pressure;Samples;Min_cycle;Max_cycle;Signal;HPM_P1;HPM_P2
2024/01/15 00:01:53;;;;;;;91.83;41.13;;;;;;;-6.55;73.07;99595.52;123789;1099;104300;-80
2024/01/15 00:04:24;;;;;;;91.00;41.55;;;;;;;-6.49;72.64;99602.84;123718;1099;104328;-80
2024/01/15 00:06:55;;;;;;;93.03;42.27;;;;;;;-6.56;72.53;99597.19;123705;1099;104297;-80
2024/01/15 00:09:27;;;;;;;95.47;44.80;;;;;;;-6.65;72.55;99608.22;123819;1099;104351;-80
2024/01/15 00:11:58;;;;;;;107.00;47.33;;;;;;;-6.67;71.87;99613.19;123736;1099;104250;-80
2024/01/15 00:14:29;;;;;;;106.57;47.33;;;;;;;-6.65;72.69;99613.32;123711;1098;104226;-80
2024/01/15 00:17:01;;;;;;;100.27;46.47;;;;;;;-6.72;72.01;99616.99;124030;1099;104277;-80
2024/01/15 00:19:32;;;;;;;101.07;45.03;;;;;;;-6.85;71.81;99611.57;123574;1099;104322;-80
2024/01/15 00:22:04;;;;;;;101.17;47.47;;;;;;;-6.98;71.86;99613.02;123704;1102;104377;-80
2024/01/15 00:24:35;;;;;;;108.63;48.43;;;;;;;-7.09;71.59;99621.33;123683;1099;104376;-81
2024/01/15 00:27:06;;;;;;;107.53;49.23;;;;;;;-7.08;71.81;99618.03;123586;1098;104241;-80
2024/01/15 00:29:37;;;;;;;116.05;52.55;;;;;;;-7.00;72.39;99616.18;123654;1099;104351;-80
2024/01/15 00:32:09;;;;;;;99.77;48.30;;;;;;;-6.94;73.11;99626.94;123623;1099;104357;-80
2024/01/15 00:34:41;;;;;;;103.17;48.40;;;;;;;-6.93;72.10;99626.19;123697;1099;104201;-80
2024/01/15 00:37:12;;;;;;;113.00;51.00;;;;;;;-6.91;72.26;99617.01;123803;1099;104341;-80
2024/01/15 00:39:43;;;;;;;107.55;49.35;;;;;;;-6.85;72.05;99615.01;123552;1099;104335;-80
2024/01/15 00:42:14;;;;;;;118.97;52.10;;;;;;;-6.79;72.34;99613.00;123383;1099;104375;-80
2024/01/15 00:44:46;;;;;;;111.50;48.47;;;;;;;-6.73;72.26;99611.00;123429;1099;104351;-80
2024/01/15 00:47:19;;;;;;;103.90;50.07;;;;;;;-6.69;72.56;99614.72;123405;1099;104229;-80
2024/01/15 00:49:50;;;;;;;106.07;48.10;;;;;;;-6.66;72.63;99607.33;123523;1099;104299;-80
2024/01/15 00:52:21;;;;;;;106.90;50.57;;;;;;;-6.63;72.18;99604.17;123403;1099;104224;-80
2024/01/15 00:54:52;;;;;;;110.80;49.80;;;;;;;-6.60;73.16;99604.44;123539;1099;104431;-80
2024/01/15 00:57:23;;;;;;;106.90;50.83;;;;;;;-6.61;72.76;99598.41;123402;1099;104374;-80
2024/01/15 00:59:54;;;;;;;107.53;49.07;;;;;;;-6.65;72.22;99601.48;123206;1099;104194;-80
2024/01/15 01:02:25;;;;;;;103.80;47.03;;;;;;;-6.67;72.98;99602.09;123295;1099;104637;-80
2024/01/15 01:04:57;;;;;;;105.10;47.63;;;;;;;-6.71;72.31;99600.94;123369;1099;104254;-81
2024/01/15 01:07:28;;;;;;;106.20;47.80;;;;;;;-6.76;72.64;99603.08;123350;1098;104351;-80
2024/01/15 01:09:59;;;;;;;108.13;47.83;;;;;;;-6.79;71.82;99604.44;123475;1099;104191;-79
2024/01/15 01:12:30;;;;;;;104.90;47.67;;;;;;;-6.82;72.76;99599.98;123286;1099;104242;-78
2024/01/15 01:15:01;;;;;;;103.50;46.67;;;;;;;-6.80;72.47;99605.22;123503;1099;104270;-79
2024/01/15 01:17:34;;;;;;;106.65;47.75;;;;;;;-6.81;72.50;99591.55;123398;1099;104306;-79
2024/01/15 01:20:08;;;;;;;102.90;47.97;;;;;;;-6.77;72.68;99598.72;123644;1099;104312;-79
2024/01/15 01:22:40;;;;;;;105.27;47.63;;;;;;;-6.75;73.41;99599.74;123733;1099;104267;-79
2024/01/15 01:25:11;;;;;;;112.65;50.90;;;;;;;-6.74;73.24;99598.99;123909;1099;104317;-79
2024/01/15 01:27:42;;;;;;;107.57;47.70;;;;;;;-6.74;72.63;99598.99;123684;1099;104293;-79
2024/01/15 01:30:14;;;;;;;107.97;48.97;;;;;;;-6.79;72.49;99590.05;123315;1099;104251;-79
2024/01/15 01:32:45;;;;;;;113.43;50.23;;;;;;;-6.79;72.35;99590.05;123618;1099;104338;-79
2024/01/15 01:35:16;;;;;;;104.13;47.07;;;;;;;-6.79;73.10;99584.94;123371;1099;104306;-79
2024/01/15 01:37:47;;;;;;;107.33;49.77;;;;;;;-6.83;72.10;99587.08;123716;1099;104271;-79
2024/01/15 01:40:19;;;;;;;113.07;50.03;;;;;;;-6.85;72.70;99588.61;123392;1099;104329;-79
2024/01/15 01:42:50;;;;;;;125.73;53.03;;;;;;;-6.85;72.46;99596.27;123455;1099;104270;-79
2024/01/15 01:45:21;;;;;;;106.37;50.27;;;;;;;-6.85;72.34;99588.61;123820;1098;104434;-79
2024/01/15 01:47:52;;;;;;;115.00;51.47;;;;;;;-6.86;72.40;99595.34;123785;1099;104238;-80
2024/01/15 01:50:24;;;;;;;109.80;51.40;;;;;;;-6.84;73.07;99581.06;123986;1099;104364;-79
2024/01/15 01:52:55;;;;;;;116.90;52.37;;;;;;;-6.82;72.40;99586.30;123782;1098;104249;-79
2024/01/15 01:55:30;;;;;;;112.05;50.25;;;;;;;-6.79;72.47;99584.02;123737;1099;104242;-79
2024/01/15 01:58:03;;;;;;;123.20;53.70;;;;;;;-6.79;72.61;99584.02;124061;1099;102127;-79
2024/01/15 02:00:35;;;;;;;117.75;52.75;;;;;;;-6.80;72.52;99579.70;123769;1099;104283;-79
2024/01/15 02:03:07;;;;;;;128.65;57.95;;;;;;;-6.78;73.16;99583.28;123371;1099;104345;-79
2024/01/15 02:05:40;;;;;;;118.63;53.70;;;;;;;-6.76;73.46;99586.84;123810;1099;104267;-78
2024/01/15 02:08:11;;;;;;;115.17;52.73;;;;;;;-6.79;72.93;99584.94;123426;1099;104245;-79
2024/01/15 02:10:42;;;;;;;119.73;53.27;;;;;;;-6.80;72.76;99584.80;123775;1099;104339;-79
2024/01/15 02:13:14;;;;;;;105.00;48.63;;;;;;;-6.80;72.47;99585.69;123460;1099;104252;-79
2024/01/15 02:15:45;;;;;;;99.05;43.60;;;;;;;-6.75;73.37;99588.66;123762;1099;104252;-79
2024/01/15 02:18:16;;;;;;;96.20;44.45;;;;;;;-6.74;72.56;99577.70;123722;1099;104344;-79
2024/01/15 02:20:47;;;;;;;90.93;40.73;;;;;;;-6.73;72.78;99579.47;123574;1099;104242;-79
2024/01/15 02:23:19;;;;;;;94.73;40.70;;;;;;;-6.70;73.42;99572.09;123808;1099;104371;-79
2024/01/15 02:25:53;;;;;;;94.87;43.23;;;;;;;-6.67;73.04;99576.58;123408;1099;104431;-79
2024/01/15 02:28:24;;;;;;;87.67;39.73;;;;;;;-6.67;72.49;99564.70;123885;1099;104245;-79
2024/01/15 02:30:55;;;;;;;95.40;40.73;;;;;;;-6.70;73.67;99562.80;123762;1099;104269;-80
2024/01/15 02:33:26;;;;;;;95.47;43.67;;;;;;;-6.72;73.69;99560.86;123597;1098;104188;-80
2024/01/15 02:35:57;;;;;;;97.07;41.07;;;;;;;-6.70;73.21;99559.33;123759;1100;104744;-80
2024/01/15 02:38:28;;;;;;;88.93;40.87;;;;;;;-6.68;72.81;99560.38;123634;1099;104291;-80
2024/01/15 02:41:00;;;;;;;93.10;43.60;;;;;;;-6.68;73.16;99557.83;123899;1099;104315;-80
2024/01/15 02:43:31;;;;;;;96.70;43.93;;;;;;;-6.66;73.79;99560.52;123975;1099;104268;-80
2024/01/15 02:46:02;;;;;;;90.47;42.07;;;;;;;-6.66;73.79;99563.06;124067;1099;104347;-80
2024/01/15 02:48:34;;;;;;;85.37;36.77;;;;;;;-6.62;72.81;99573.68;124213;1099;104223;-80
2024/01/15 02:51:06;;;;;;;80.30;34.97;;;;;;;-6.57;73.07;99564.77;123934;1099;104273;-80
2024/01/15 02:53:38;;;;;;;81.47;36.20;;;;;;;-6.57;73.49;99566.43;123917;1099;104405;-80
2024/01/15 02:56:10;;;;;;;87.30;37.50;;;;;;;-6.54;73.44;99559.05;123469;1099;102511;-80
2024/01/15 02:58:41;;;;;;;80.37;35.07;;;;;;;-6.54;73.95;99564.15;123755;1099;104347;-80
2024/01/15 03:01:12;;;;;;;80.00;35.37;;;;;;;-6.54;73.33;99561.59;123909;1098;105780;-80
2024/01/15 03:03:43;;;;;;;81.50;35.07;;;;;;;-6.53;74.29;99558.26;123626;1099;104271;-80
2024/01/15 03:06:15;;;;;;;72.83;35.57;;;;;;;-6.55;73.36;99554.69;123325;1099;104358;-80
2024/01/15 03:08:46;;;;;;;78.40;36.70;;;;;;;-6.55;73.43;99554.69;123658;1099;104242;-80
2024/01/15 03:11:17;;;;;;;88.50;38.73;;;;;;;-6.59;73.02;99558.64;123696;1099;104325;-80
2024/01/15 03:13:48;;;;;;;90.27;37.40;;;;;;;-6.60;73.96;99555.95;123626;1099;104339;-80
2024/01/15 03:16:20;;;;;;;79.90;35.27;;;;;;;-6.62;73.84;99553.27;123789;1099;104229;-80
2024/01/15 03:18:51;;;;;;;83.43;37.90;;;;;;;-6.69;73.05;99556.91;123788;1099;104365;-81
2024/01/15 03:21:23;;;;;;;91.33;40.33;;;;;;;-6.75;73.31;99560.59;123360;1099;104277;-79
2024/01/15 03:23:54;;;;;;;93.87;44.27;;;;;;;-6.79;73.30;99553.41;123596;1099;104248;-80
2024/01/15 03:26:25;;;;;;;93.30;43.33;;;;;;;-6.81;72.98;99554.94;123657;1099;104343;-80
2024/01/15 03:28:56;;;;;;;90.83;42.20;;;;;;;-6.85;73.42;99555.45;123796;1099;104293;-80
2024/01/15 03:31:27;;;;;;;92.33;41.73;;;;;;;-6.88;73.55;99553.52;123707;1099;104242;-80
2024/01/15 03:33:58;;;;;;;99.97;43.70;;;;;;;-6.89;73.96;99552.63;123617;1099;111942;-80
2024/01/15 03:36:29;;;;;;;96.00;42.40;;;;;;;-6.93;72.51;99552.22;123596;1099;104258;-81
2024/01/15 03:39:01;;;;;;;90.53;40.53;;;;;;;-6.98;72.73;99546.70;123759;1099;104366;-80
2024/01/15 03:41:32;;;;;;;90.00;39.23;;;;;;;-6.98;73.49;99556.91;123260;1099;104460;-80
2024/01/15 03:44:03;;;;;;;92.07;41.07;;;;;;;-6.94;73.19;99560.62;123664;1099;104271;-80
2024/01/15 03:46:35;;;;;;;96.95;42.60;;;;;;;-6.90;73.37;99567.80;123387;1099;104270;-80
2024/01/15 03:49:06;;;;;;;88.90;39.47;;;;;;;-6.90;73.49;99566.13;123396;1099;104267;-80
2024/01/15 03:51:38;;;;;;;91.43;39.50;;;;;;;-6.87;73.75;99553.65;123590;1099;104412;-79
2024/01/15 03:54:09;;;;;;;87.83;37.70;;;;;;;-6.82;73.70;99568.45;123816;1099;104239;-79
2024/01/15 03:56:40;;;;;;;79.30;35.37;;;;;;;-6.79;73.50;99566.17;123536;1099;104272;-79
2024/01/15 03:59:11;;;;;;;85.80;36.40;;;;;;;-6.80;74.16;99565.28;123817;1099;104290;-79
2024/01/15 04:01:48;;;;;;;82.87;38.87;;;;;;;-6.79;73.54;99568.72;123585;1099;104207;-79
2024/01/15 04:04:19;;;;;;;86.37;38.00;;;;;;;-6.76;73.47;99564.80;123651;1099;104335;-79
2024/01/15 04:06:51;;;;;;;73.73;31.17;;;;;;;-6.78;74.10;99558.65;123595;1099;104271;-79
2024/01/15 04:09:22;;;;;;;79.95;35.55;;;;;;;-6.75;74.04;99575.89;123601;1099;104239;-79
2024/01/15 04:11:53;;;;;;;88.10;36.77;;;;;;;-6.73;73.87;99567.63;123541;1099;104284;-79
2024/01/15 04:14:24;;;;;;;83.70;35.50;;;;;;;-6.70;73.76;99557.69;123254;1097;104341;-79
2024/01/15 04:16:56;;;;;;;81.47;35.30;;;;;;;-6.63;73.79;99566.77;123239;1099;104798;-79
2024/01/15 04:19:30;;;;;;;74.63;34.10;;;;;;;-6.58;74.53;99565.52;123644;1099;104277;-79
2024/01/15 04:22:01;;;;;;;78.60;35.60;;;;;;;-6.54;74.16;99559.92;123670;1099;104450;-79
2024/01/15 04:24:34;;;;;;;78.40;34.70;;;;;;;-6.55;73.89;99565.78;123950;1099;104201;-79
2024/01/15 04:27:05;;;;;;;73.25;33.10;;;;;;;-6.59;74.27;99558.64;123739;1099;104293;-79
2024/01/15 04:29:38;;;;;;;82.90;35.05;;;;;;;-6.61;74.41;99555.03;123388;1099;104425;-80
2024/01/15 04:32:10;;;;;;;77.77;33.07;;;;;;;-6.62;73.90;99553.27;123292;1099;104312;-79
2024/01/15 04:34:41;;;;;;;68.93;31.33;;;;;;;-6.59;74.03;99548.43;123711;1098;104271;-79
2024/01/15 04:37:12;;;;;;;75.77;34.93;;;;;;;-6.60;74.07;99545.74;123608;1099;105236;-79
2024/01/15 04:39:44;;;;;;;77.43;34.07;;;;;;;-6.59;73.81;99544.96;123683;1099;104242;-79
2024/01/15 04:42:15;;;;;;;76.23;33.67;;;;;;;-6.56;74.49;99546.14;123292;1099;104364;-79
2024/01/15 04:44:46;;;;;;;77.63;34.93;;;;;;;-6.54;74.16;99549.72;123515;1099;104287;-79
2024/01/15 04:47:17;;;;;;;71.90;30.80;;;;;;;-6.54;74.00;99544.61;123406;1099;104257;-79
2024/01/15 04:49:49;;;;;;;77.67;34.60;;;;;;;-6.53;74.22;99543.86;123726;1099;104345;-79
2024/01/15 04:52:20;;;;;;;79.33;35.53;;;;;;;-6.53;74.54;99533.66;123307;1099;104390;-79
2024/01/15 04:54:51;;;;;;;78.57;35.03;;;;;;;-6.55;74.13;99530.05;123528;1099;104223;-79
2024/01/15 04:57:22;;;;;;;85.63;37.47;;;;;;;-6.58;74.53;99536.55;123259;1099;104267;-79
2024/01/15 04:59:53;;;;;;;82.90;37.33;;;;;;;-6.62;73.82;99537.95;123574;1099;104242;-78
2024/01/15 05:02:24;;;;;;;82.10;38.37;;;;;;;-6.61;74.34;99534.62;123711;1099;104277;-78
2024/01/15 05:04:55;;;;;;;90.30;41.20;;;;;;;-6.64;74.58;99524.14;123585;1099;104278;-79
2024/01/15 05:07:26;;;;;;;81.23;37.63;;;;;;;-6.63;74.38;99520.84;123559;1099;104402;-78
2024/01/15 05:09:58;;;;;;;81.13;36.40;;;;;;;-6.60;74.56;99517.67;123548;1099;104194;-78
2024/01/15 05:12:29;;;;;;;69.00;31.43;;;;;;;-6.54;74.23;99520.76;123582;1099;104245;-79
2024/01/15 05:15:00;;;;;;;69.33;31.70;;;;;;;-6.52;74.97;99514.13;123182;1099;104402;-79
2024/01/15 05:17:31;;;;;;;71.70;32.07;;;;;;;-6.45;74.26;99535.95;123273;1099;104249;-78
2024/01/15 05:20:03;;;;;;;72.47;33.60;;;;;;;-6.41;74.78;99523.59;123570;1099;104357;-79
2024/01/15 05:22:34;;;;;;;81.87;34.73;;;;;;;-6.37;74.82;99527.33;123268;1099;104469;-79
2024/01/15 05:25:06;;;;;;;88.03;38.63;;;;;;;-6.39;74.37;99527.20;123628;1099;104367;-79
2024/01/15 05:27:37;;;;;;;83.90;37.37;;;;;;;-6.45;74.11;99519.00;123757;1099;104274;-78
2024/01/15 05:30:10;;;;;;;86.50;40.20;;;;;;;-6.46;74.71;99514.66;123908;1099;104220;-78
2024/01/15 05:32:42;;;;;;;86.40;37.80;;;;;;;-6.45;74.74;99510.43;123855;1099;104242;-78
2024/01/15 05:35:16;;;;;;;73.10;34.33;;;;;;;-6.43;75.01;99497.05;123722;1098;104245;-78
2024/01/15 05:37:48;;;;;;;69.77;31.47;;;;;;;-6.38;74.37;99495.78;123772;1099;104294;-79
2024/01/15 05:40:19;;;;;;;76.23;34.20;;;;;;;-6.28;74.94;99502.56;123599;1099;104284;-79
2024/01/15 05:42:50;;;;;;;92.77;43.13;;;;;;;-6.32;74.16;99510.73;123903;1099;104300;-78
2024/01/15 05:45:21;;;;;;;95.10;46.57;;;;;;;-6.29;75.03;99507.53;123905;1099;104175;-79
2024/01/15 05:47:53;;;;;;;95.23;47.90;;;;;;;-6.24;74.54;99507.17;123562;1099;104338;-78
2024/01/15 05:50:24;;;;;;;93.53;45.13;;;;;;;-6.19;74.91;99515.23;123917;1099;104667;-79
2024/01/15 05:52:55;;;;;;;91.83;42.60;;;;;;;-6.15;74.78;99502.85;124196;1099;104373;-79
2024/01/15 05:55:26;;;;;;;83.93;39.57;;;;;;;-6.08;74.72;99509.37;124026;1099;104357;-78
2024/01/15 05:58:00;;;;;;;82.77;37.23;;;;;;;-6.01;74.76;99505.70;123498;1099;104319;-79
2024/01/15 06:00:32;;;;;;;90.27;40.03;;;;;;;-5.92;75.55;99511.55;123909;1099;104464;-78
2024/01/15 06:03:04;;;;;;;89.57;38.77;;;;;;;-5.88;75.13;99515.25;123786;1099;104360;-78
2024/01/15 06:05:35;;;;;;;72.70;33.60;;;;;;;-5.80;75.20;99519.33;123966;1099;104287;-79
2024/01/15 06:08:07;;;;;;;75.85;33.75;;;;;;;-5.75;75.37;99519.72;123970;1099;104223;-78
2024/01/15 06:10:38;;;;;;;83.27;38.87;;;;;;;-5.71;75.47;99514.11;123565;1099;104357;-78
2024/01/15 06:13:09;;;;;;;99.77;45.13;;;;;;;-5.71;74.98;99507.33;124081;1099;104268;-78
2024/01/15 06:15:40;;;;;;;110.33;51.27;;;;;;;-5.77;74.79;99507.70;123962;1099;104262;-78
2024/01/15 06:18:11;;;;;;;101.80;50.20;;;;;;;-5.77;74.41;99512.81;123769;1099;104347;-78
2024/01/15 06:20:42;;;;;;;101.90;48.93;;;;;;;-5.72;75.13;99517.42;124352;1099;104238;-79
2024/01/15 06:23:14;;;;;;;101.00;48.20;;;;;;;-5.70;74.78;99516.80;124170;1099;104160;-79
2024/01/15 06:25:45;;;;;;;102.03;47.77;;;;;;;-5.63;74.68;99511.41;124436;1098;104210;-78
2024/01/15 06:28:16;;;;;;;95.73;47.17;;;;;;;-5.58;74.67;99511.80;124147;1102;104262;-78
2024/01/15 06:30:48;;;;;;;99.33;46.40;;;;;;;-5.50;74.98;99509.88;124540;1099;104274;-79
2024/01/15 06:33:20;;;;;;;90.33;43.57;;;;;;;-5.43;75.12;99515.63;124563;1099;104252;-78
2024/01/15 06:35:52;;;;;;;95.50;46.47;;;;;;;-5.34;75.03;99515.50;124209;1099;104294;-79
2024/01/15 06:38:25;;;;;;;96.50;45.57;;;;;;;-5.26;75.18;99514.45;124779;1099;104306;-79
2024/01/15 06:40:58;;;;;;;88.17;41.37;;;;;;;-5.20;74.81;99520.83;124680;1099;104169;-78
2024/01/15 06:43:31;;;;;;;91.70;45.85;;;;;;;-5.17;74.59;99511.77;124729;1098;104236;-79
2024/01/15 06:46:03;;;;;;;96.75;45.38;;;;;;;-5.06;75.05;99503.29;124706;1099;104230;-79
2024/01/15 06:48:38;;;;;;;90.30;43.10;;;;;;;-4.93;75.36;99488.93;124870;1099;104207;-78
2024/01/15 06:51:09;;;;;;;83.87;41.13;;;;;;;-4.80;75.45;99473.80;124627;1098;103651;-79
2024/01/15 06:53:41;;;;;;;72.97;35.33;;;;;;;-4.67;75.62;99467.06;124350;1099;104277;-79
2024/01/15 06:56:13;;;;;;;66.10;30.33;;;;;;;-4.52;75.77;99463.14;124310;1099;104297;-79
2024/01/15 06:58:45;;;;;;;58.87;27.57;;;;;;;-4.36;75.96;99460.14;124375;1099;104246;-79
2024/01/15 07:01:16;;;;;;;55.60;26.43;;;;;;;-4.22;75.67;99451.84;124690;1099;102964;-79
2024/01/15 07:03:47;;;;;;;56.00;24.27;;;;;;;-4.07;76.34;99444.42;124567;1099;101967;-79
2024/01/15 07:06:18;;;;;;;52.43;23.93;;;;;;;-3.93;75.94;99444.59;124720;1098;104232;-78
2024/01/15 07:08:50;;;;;;;57.43;26.73;;;;;;;-3.77;76.22;99441.50;124701;1099;104271;-79
2024/01/15 07:11:24;;;;;;;54.77;25.13;;;;;;;-3.63;76.66;99449.46;124219;1099;101904;-79
2024/01/15 07:13:55;;;;;;;72.90;34.03;;;;;;;-3.49;76.01;99452.14;124804;1099;104245;-79
2024/01/15 07:16:35;;;;;;;84.27;40.73;;;;;;;-3.45;75.26;99456.73;124882;1099;104172;-79
2024/01/15 07:19:12;;;;;;;88.40;43.55;;;;;;;-3.42;75.75;99458.64;124778;1099;104185;-79
2024/01/15 07:21:54;;;;;;;64.93;32.23;;;;;;;-3.38;75.42;99458.06;125016;1099;104236;-79
2024/01/15 07:24:26;;;;;;;91.60;44.37;;;;;;;-3.32;74.52;99449.17;125323;1099;104274;-79
2024/01/15 07:26:57;;;;;;;85.30;41.53;;;;;;;-3.17;75.59;99456.20;124974;1099;104397;-79
2024/01/15 07:29:30;;;;;;;82.00;39.53;;;;;;;-3.00;75.26;99450.61;124776;1099;104207;-79
2024/01/15 07:32:01;;;;;;;84.97;39.83;;;;;;;-2.81;76.16;99455.38;124811;1099;104354;-79
2024/01/15 07:34:33;;;;;;;82.57;39.27;;;;;;;-2.68;75.87;99461.39;124916;1098;104249;-78
2024/01/15 07:37:05;;;;;;;75.23;36.70;;;;;;;-2.50;76.10;99461.81;124852;1099;104261;-79
2024/01/15 07:39:36;;;;;;;73.67;36.63;;;;;;;-2.30;76.08;99464.10;124691;1099;104348;-79
2024/01/15 07:42:08;;;;;;;76.00;37.37;;;;;;;-2.14;75.41;99457.45;124745;1099;104351;-79
2024/01/15 07:44:39;;;;;;;55.70;26.83;;;;;;;-1.97;75.89;99449.22;124932;1099;104201;-79
2024/01/15 07:47:10;;;;;;;60.97;29.73;;;;;;;-1.79;76.02;99440.95;125000;1099;104323;-78
2024/01/15 07:49:41;;;;;;;67.90;34.50;;;;;;;-1.69;76.33;99428.82;124751;1099;104275;-79
2024/01/15 07:52:13;;;;;;;62.50;30.50;;;;;;;-1.43;76.34;99434.82;124163;1099;102156;-79
2024/01/15 07:54:45;;;;;;;51.63;24.60;;;;;;;-1.22;75.16;99425.02;124692;1099;104210;-80
2024/01/15 07:57:17;;;;;;;51.60;24.43;;;;;;;-0.96;76.46;99418.98;125059;1099;104115;-80
2024/01/15 07:59:48;;;;;;;45.10;22.47;;;;;;;-0.72;75.79;99413.59;124877;1099;102031;-80
2024/01/15 08:02:19;;;;;;;43.60;20.40;;;;;;;-0.50;75.80;99415.81;124520;1099;103038;-79
2024/01/15 08:04:50;;;;;;;50.90;25.90;;;;;;;-0.32;76.21;99423.80;124701;1099;104223;-80
2024/01/15 08:07:22;;;;;;;51.07;24.60;;;;;;;-0.21;75.62;99421.89;124881;1099;104277;-79
2024/01/15 08:09:53;;;;;;;68.95;33.30;;;;;;;-0.10;76.08;99415.69;124399;1099;104198;-79
2024/01/15 08:12:26;;;;;;;60.00;31.50;;;;;;;0.07;76.30;99405.50;124736;1099;102683;-79
2024/01/15 08:14:58;;;;;;;58.50;28.98;;;;;;;0.26;76.09;99405.77;124382;1099;104258;-79
2024/01/15 08:17:29;;;;;;;62.80;33.57;;;;;;;0.32;75.70;99400.98;124866;1099;104239;-80
2024/01/15 08:20:01;;;;;;;71.97;38.03;;;;;;;0.46;76.00;99406.06;125489;1098;101886;-80
2024/01/15 08:22:35;;;;;;;71.17;36.47;;;;;;;0.71;76.39;99406.66;124772;1099;104251;-80
2024/01/15 08:25:09;;;;;;;67.10;34.73;;;;;;;0.94;76.08;99403.62;124889;1098;104169;-80
2024/01/15 08:27:45;;;;;;;65.53;33.90;;;;;;;1.06;75.64;99400.03;124809;1099;104344;-81
2024/01/15 08:30:18;;;;;;;66.70;32.63;;;;;;;1.19;76.32;99398.13;124601;1099;119961;-78
2024/01/15 08:32:51;;;;;;;65.92;34.08;;;;;;;1.22;76.49;99399.17;124803;1099;104280;-79
2024/01/15 08:35:24;;;;;;;59.97;32.90;;;;;;;1.33;75.89;99386.84;125045;1099;104278;-78
2024/01/15 08:37:59;;;;;;;64.55;34.45;;;;;;;1.36;75.72;99386.13;126304;1099;102499;-80
2024/01/15 08:40:31;;;;;;;66.80;35.60;;;;;;;1.39;75.73;99399.22;125273;1099;101927;-78
2024/01/15 08:43:02;;;;;;;65.97;36.53;;;;;;;1.38;75.97;99402.60;124826;1099;104357;-80
2024/01/15 08:45:34;;;;;;;65.07;35.03;;;;;;;1.29;74.87;99410.73;124835;1099;104072;-79
2024/01/15 08:48:05;;;;;;;67.83;35.63;;;;;;;1.25;75.17;99399.34;125011;1099;102143;-80
2024/01/15 08:50:41;;;;;;;53.63;28.10;;;;;;;1.25;75.27;99398.47;124955;1099;104281;-80
2024/01/15 08:53:13;;;;;;;53.60;27.90;;;;;;;1.23;74.83;99389.72;124871;1099;104220;-79
2024/01/15 08:55:45;;;;;;;35.03;17.70;;;;;;;1.28;75.30;99383.13;124482;1100;104303;-79
2024/01/15 08:58:16;;;;;;;39.77;20.17;;;;;;;1.31;75.55;99378.13;124868;1099;104252;-80
2024/01/15 09:00:48;;;;;;;54.30;29.33;;;;;;;1.35;74.89;99380.05;124293;1099;104280;-79
2024/01/15 09:03:20;;;;;;;44.73;23.33;;;;;;;1.38;74.81;99380.22;125039;1099;102141;-79
2024/01/15 09:05:51;;;;;;;36.17;17.13;;;;;;;1.42;75.27;99377.00;124863;1099;104230;-80
2024/01/15 09:08:22;;;;;;;39.90;19.53;;;;;;;1.48;75.40;99370.38;124971;1099;104162;-79
2024/01/15 09:10:54;;;;;;;27.07;12.07;;;;;;;1.53;74.09;99371.53;124943;1099;104360;-80
2024/01/15 09:13:26;;;;;;;27.23;12.10;;;;;;;1.52;74.25;99360.28;125144;1099;104230;-79
2024/01/15 09:15:59;;;;;;;24.50;11.53;;;;;;;1.57;73.74;99345.01;124971;1099;104229;-79
2024/01/15 09:18:30;;;;;;;25.00;10.97;;;;;;;1.61;73.85;99339.20;125100;1099;103014;-79
2024/01/15 09:21:03;;;;;;;21.70;9.30;;;;;;;1.59;72.41;99344.30;125020;1099;104348;-80
2024/01/15 09:23:35;;;;;;;25.20;11.30;;;;;;;1.61;72.96;99344.38;124896;1099;104211;-79
2024/01/15 09:26:11;;;;;;;24.40;10.83;;;;;;;1.54;73.07;99350.02;125055;1097;104251;-79
2024/01/15 09:28:43;;;;;;;24.43;10.90;;;;;;;1.48;72.96;99332.50;124857;1099;102838;-80
2024/01/15 09:31:14;;;;;;;25.83;11.60;;;;;;;1.43;73.08;99323.59;124551;1099;102263;-79
2024/01/15 09:33:55;;;;;;;25.80;12.20;;;;;;;1.41;72.76;99328.68;124831;1099;104289;-80
2024/01/15 09:36:27;;;;;;;28.20;11.97;;;;;;;1.34;71.95;99311.09;124780;1099;104252;-79
2024/01/15 09:38:58;;;;;;;29.00;12.93;;;;;;;1.32;72.23;99312.69;124847;1098;104351;-78
2024/01/15 09:41:30;;;;;;;28.10;12.27;;;;;;;1.31;72.11;99303.17;124912;1099;104268;-79
2024/01/15 09:44:02;;;;;;;29.63;12.83;;;;;;;1.39;72.32;99294.12;124694;1099;102653;-79
2024/01/15 09:46:34;;;;;;;26.67;12.30;;;;;;;1.49;72.36;99290.31;124768;1099;104313;-80
2024/01/15 09:49:06;;;;;;;27.60;13.00;;;;;;;1.59;72.25;99291.66;124805;1099;104185;-79
2024/01/15 09:51:40;;;;;;;29.37;13.07;;;;;;;1.68;71.81;99280.92;124435;1099;104334;-80
2024/01/15 09:54:16;;;;;;;28.25;12.28;;;;;;;1.78;72.14;99281.47;124421;1099;104205;-79
2024/01/15 09:56:49;;;;;;;23.60;11.75;;;;;;;1.89;72.35;99275.97;124472;1099;103913;-79
2024/01/15 09:59:22;;;;;;;24.53;11.87;;;;;;;1.95;72.38;99274.56;124463;1102;104408;-79
2024/01/15 10:01:55;;;;;;;25.03;11.97;;;;;;;2.07;72.33;99271.72;124954;1098;104172;-79
2024/01/15 10:04:28;;;;;;;27.30;12.23;;;;;;;2.12;71.80;99261.56;125055;1099;103045;-79
2024/01/15 10:07:01;;;;;;;25.67;11.13;;;;;;;2.16;71.27;99256.61;124724;1099;104322;-79
2024/01/15 10:09:36;;;;;;;26.40;11.83;;;;;;;2.17;71.51;99257.52;125151;1099;102471;-79
2024/01/15 10:12:11;;;;;;;25.27;12.07;;;;;;;2.14;71.12;99263.42;125009;1099;103444;-78
2024/01/15 10:14:44;;;;;;;26.17;11.07;;;;;;;2.17;70.53;99249.76;124833;1099;104326;-79
2024/01/15 10:17:17;;;;;;;24.87;11.70;;;;;;;2.20;71.63;99239.56;124848;1099;104274;-79
2024/01/15 10:19:49;;;;;;;24.90;11.73;;;;;;;2.23;70.97;99249.15;124994;1099;104361;-79
2024/01/15 10:22:20;;;;;;;23.37;11.13;;;;;;;2.26;71.74;99236.36;124808;1099;104245;-79
2024/01/15 10:24:52;;;;;;;26.57;11.60;;;;;;;2.29;71.72;99236.50;125243;1099;104232;-79
2024/01/15 10:27:23;;;;;;;24.57;11.00;;;;;;;2.25;70.06;99222.53;125138;1099;103137;-79
2024/01/15 10:29:54;;;;;;;27.10;12.07;;;;;;;2.28;71.47;99224.40;124654;1099;104300;-79
2024/01/15 10:32:26;;;;;;;27.77;12.03;;;;;;;2.38;72.05;99211.06;125224;1099;104219;-79
2024/01/15 10:35:09;;;;;;;27.63;12.10;;;;;;;2.49;71.49;99214.16;124915;1099;104204;-79
2024/01/15 10:37:42;;;;;;;24.97;12.40;;;;;;;2.53;71.52;99210.91;125367;1098;104194;-79
2024/01/15 10:40:15;;;;;;;26.07;12.30;;;;;;;2.65;72.11;99200.22;125657;1099;102710;-79
2024/01/15 10:42:51;;;;;;;25.37;12.03;;;;;;;2.80;71.29;99213.00;125053;1099;104248;-79
2024/01/15 10:45:23;;;;;;;27.70;12.30;;;;;;;2.87;71.49;99210.76;125140;1099;102343;-79
2024/01/15 10:47:58;;;;;;;25.10;11.80;;;;;;;2.97;70.90;99209.46;125200;1099;101770;-79
2024/01/15 10:50:30;;;;;;;28.00;12.87;;;;;;;3.16;71.33;99211.17;125084;1099;103009;-79
2024/01/15 10:53:02;;;;;;;25.33;11.90;;;;;;;3.34;71.56;99200.73;124645;1099;104306;-79
2024/01/15 10:55:36;;;;;;;27.73;13.57;;;;;;;3.55;71.83;99200.78;126649;1098;102526;-78
2024/01/15 10:58:08;;;;;;;29.70;13.90;;;;;;;3.74;70.52;99193.75;126382;1099;101918;-79
2024/01/15 11:00:40;;;;;;;28.33;13.30;;;;;;;3.81;68.85;99188.01;126871;1098;101899;-78
2024/01/15 11:03:12;;;;;;;30.63;16.07;;;;;;;3.83;69.75;99183.76;126737;1099;101927;-78
2024/01/15 11:05:44;;;;;;;28.27;13.83;;;;;;;3.96;69.25;99167.88;126693;1099;102330;-77
2024/01/15 11:08:25;;;;;;;28.10;13.70;;;;;;;4.03;70.41;99170.72;125396;1099;103260;-77
2024/01/15 11:10:57;;;;;;;31.05;14.95;;;;;;;4.08;68.85;99167.50;124512;1099;104313;-77
2024/01/15 11:13:52;;;;;;;31.93;15.83;;;;;;;4.09;68.06;99165.78;125371;1099;104222;-77
2024/01/15 11:16:23;;;;;;;31.10;15.73;;;;;;;4.17;69.12;99153.11;125510;1099;102733;-78
2024/01/15 11:19:19;;;;;;;29.57;12.47;;;;;;;4.25;68.77;99149.09;125097;1099;104173;-78
2024/01/15 11:21:51;;;;;;;25.50;12.10;;;;;;;4.31;68.76;99138.94;127065;1098;102254;-77
2024/01/15 11:24:40;;;;;;;24.23;11.53;;;;;;;4.28;66.45;99131.91;125320;1099;104200;-77